createdAt,value
2022-09-23T00:05:00.734Z,94.63
2022-09-23T00:10:01.910Z,94.65
2022-09-23T00:15:04.000Z,94.26
2022-09-23T00:20:08.454Z,94.22
2022-09-23T00:25:10.665Z,94.53
2022-09-23T00:30:11.983Z,94.81
2022-09-23T00:35:13.046Z,94.83
2022-09-23T00:40:14.821Z,95.18
2022-09-23T00:45:16.490Z,95.21
2022-09-23T00:50:29.396Z,95.39
2022-09-23T00:55:43.329Z,95.49
2022-09-23T01:00:46.053Z,95.67
2022-09-23T01:05:47.772Z,95.94
2022-09-23T01:11:15.709Z,95.98
2022-09-23T01:16:54.738Z,96.19
2022-09-23T01:22:18.772Z,96.30
2022-09-23T01:27:28.762Z,96.09
2022-09-23T01:32:58.815Z,95.91
2022-09-23T01:38:30.915Z,95.50
2022-09-23T01:43:54.078Z,95.58
2022-09-23T01:49:16.891Z,95.55
2022-09-23T01:54:27.991Z,95.87
2022-09-23T01:59:39.392Z,96.03
2022-09-23T02:05:07.420Z,95.80
2022-09-23T02:10:23.323Z,95.39
2022-09-23T02:15:29.534Z,95.36
2022-09-23T02:20:36.001Z,95.33
2022-09-23T02:25:53.610Z,95.17
2022-09-23T02:31:23.159Z,94.78
2022-09-23T02:36:31.559Z,95.17
2022-09-23T02:41:33.971Z,95.15
2022-09-23T02:46:36.292Z,95.35
2022-09-23T02:51:38.904Z,95.28
2022-09-23T02:56:41.119Z,95.37
2022-09-23T03:01:53.611Z,95.51
2022-09-23T03:07:00.699Z,95.69
2022-09-23T03:12:39.351Z,95.14
2022-09-23T03:17:49.179Z,95.02
2022-09-23T03:23:00.172Z,95.26
2022-09-23T03:28:03.197Z,95.26
2022-09-23T03:33:08.508Z,95.34
2022-09-23T03:38:16.568Z,95.40
2022-09-23T03:43:18.013Z,95.42
2022-09-23T03:48:21.408Z,95.85
2022-09-23T03:53:22.651Z,95.90
2022-09-23T03:58:23.743Z,95.49
2022-09-23T04:03:27.338Z,95.48
2022-09-23T04:08:28.713Z,95.27
2022-09-23T04:13:30.620Z,95.22
2022-09-23T04:18:31.863Z,95.02
2022-09-23T04:23:33.008Z,95.62
2022-09-23T04:28:34.487Z,95.70
2022-09-23T04:33:36.992Z,95.75
2022-09-23T04:38:38.234Z,95.66
2022-09-23T04:43:39.534Z,96.03
2022-09-23T04:48:42.368Z,95.56
2022-09-23T04:53:45.551Z,95.52
2022-09-23T04:58:47.378Z,95.13
2022-09-23T05:03:48.560Z,94.69
2022-09-23T05:08:50.705Z,94.03
2022-09-23T05:13:53.832Z,94.12
2022-09-23T05:18:55.133Z,94.15
2022-09-23T05:23:59.797Z,94.04
2022-09-23T05:29:04.902Z,93.84
2022-09-23T05:34:06.368Z,93.99
2022-09-23T05:39:08.050Z,94.01
2022-09-23T05:44:09.933Z,94.24
2022-09-23T05:49:11.374Z,93.59
2022-09-23T05:54:13.850Z,93.15
2022-09-23T05:59:15.235Z,92.69
2022-09-23T06:04:16.389Z,92.10
2022-09-23T06:09:18.534Z,91.61
2022-09-23T06:14:19.783Z,90.39
2022-09-23T06:19:21.020Z,89.34
2022-09-23T06:24:27.251Z,88.24
2022-09-23T06:29:32.526Z,86.17
2022-09-23T06:34:44.737Z,84.47
2022-09-23T06:39:48.574Z,82.93
2022-09-23T06:44:49.749Z,82.66
2022-09-23T06:49:50.963Z,81.93
2022-09-23T06:54:52.559Z,80.52
2022-09-23T06:59:53.782Z,78.70
2022-09-23T07:04:56.681Z,75.13
2022-09-23T07:09:58.090Z,72.00
2022-09-23T07:14:59.474Z,70.57
2022-09-23T07:20:01.332Z,67.22
2022-09-23T07:25:03.351Z,66.17
2022-09-23T07:30:06.061Z,63.44
2022-09-23T07:35:10.564Z,60.85
2022-09-23T07:40:12.250Z,58.97
2022-09-23T07:45:14.387Z,58.03
2022-09-23T07:50:15.685Z,56.44
2022-09-23T07:55:21.030Z,58.32
2022-09-23T08:00:22.460Z,58.54
2022-09-23T08:05:25.248Z,60.16
2022-09-23T08:10:26.568Z,60.54
2022-09-23T08:15:31.265Z,61.54
2022-09-23T08:20:51.606Z,62.11
2022-09-23T08:25:59.641Z,62.72
2022-09-23T08:31:01.680Z,63.43
2022-09-23T08:36:03.280Z,65.22
2022-09-23T08:41:15.537Z,66.98
2022-09-23T08:46:24.182Z,68.31
2022-09-23T08:51:32.910Z,69.46
2022-09-23T08:56:38.023Z,69.60
2022-09-23T09:01:43.041Z,69.73
2022-09-23T09:06:53.590Z,70.56
2022-09-23T09:12:02.571Z,69.48
2022-09-23T09:17:13.094Z,69.06
2022-09-23T09:22:48.708Z,68.88
2022-09-23T09:27:51.307Z,68.75
2022-09-23T09:33:06.058Z,68.82
2022-09-23T09:38:07.653Z,68.59
2022-09-23T09:43:09.960Z,68.85
2022-09-23T09:48:17.003Z,68.58
2022-09-23T09:53:25.725Z,68.28
2022-09-23T09:58:33.396Z,67.83
2022-09-23T10:03:40.671Z,67.82
2022-09-23T10:08:48.654Z,68.02
2022-09-23T10:14:12.240Z,67.34
2022-09-23T10:19:25.462Z,67.28
2022-09-23T10:24:36.350Z,66.40
2022-09-23T10:29:58.125Z,64.93
2022-09-23T10:35:13.879Z,62.21
2022-09-23T10:40:54.937Z,59.79
2022-09-23T10:46:20.922Z,60.78
2022-09-23T10:51:31.370Z,61.50
2022-09-23T10:56:38.873Z,61.31
2022-09-23T11:02:01.358Z,61.19
2022-09-23T11:07:08.727Z,61.35
2022-09-23T11:12:31.645Z,61.33
2022-09-23T11:18:10.450Z,60.41
2022-09-23T11:23:25.806Z,57.78
2022-09-23T11:28:47.789Z,58.71
2022-09-23T11:34:24.749Z,57.68
2022-09-23T11:39:30.366Z,58.85
2022-09-23T11:44:38.566Z,59.60
2022-09-23T11:50:02.025Z,60.14
2022-09-23T11:55:22.208Z,61.06
2022-09-23T12:00:28.928Z,62.37
2022-09-23T12:05:41.176Z,63.13
2022-09-23T12:10:55.324Z,63.71
2022-09-23T12:16:15.407Z,64.40
2022-09-23T12:27:05.462Z,65.08
2022-09-23T12:32:09.214Z,65.74
2022-09-23T12:37:10.567Z,66.17
2022-09-23T12:42:17.677Z,66.38
2022-09-23T12:47:27.289Z,66.60
2022-09-23T12:52:31.853Z,66.56
2022-09-23T12:57:33.061Z,66.43
2022-09-23T13:02:39.012Z,66.04
2022-09-23T13:07:46.493Z,65.14
2022-09-23T13:12:47.961Z,63.60
2022-09-23T13:17:49.587Z,63.45
2022-09-23T13:22:53.399Z,62.77
2022-09-23T13:27:58.257Z,62.29
2022-09-23T13:33:22.335Z,61.30
2022-09-23T13:38:26.670Z,60.89
2022-09-23T13:43:41.249Z,61.08
2022-09-23T13:48:45.543Z,59.65
2022-09-23T13:53:55.530Z,58.76
2022-09-23T13:59:25.207Z,58.27
2022-09-23T14:04:26.733Z,56.97
2022-09-23T14:09:29.985Z,57.22
2022-09-23T14:14:36.501Z,58.11
2022-09-23T14:19:41.749Z,58.10
2022-09-23T14:24:43.089Z,57.91
2022-09-23T14:29:47.459Z,57.87
2022-09-23T14:34:54.134Z,58.05
2022-09-23T14:39:57.817Z,58.48
2022-09-23T14:44:59.513Z,59.07
2022-09-23T14:50:19.950Z,59.68
2022-09-23T14:55:21.245Z,60.16
2022-09-23T15:00:22.699Z,61.03
2022-09-23T15:05:44.978Z,61.94
2022-09-23T15:10:48.297Z,62.61
2022-09-23T15:15:54.644Z,63.13
2022-09-23T15:21:16.065Z,63.59
2022-09-23T15:26:23.324Z,63.87
2022-09-23T15:31:26.989Z,64.17
2022-09-23T15:36:28.673Z,64.28
2022-09-23T15:41:32.439Z,64.39
2022-09-23T15:46:36.728Z,64.53
2022-09-23T15:51:40.208Z,64.80
2022-09-23T15:56:41.505Z,65.49
2022-09-23T16:01:44.568Z,66.36
2022-09-23T16:06:47.654Z,67.13
2022-09-23T16:11:50.863Z,67.80
2022-09-23T16:16:52.886Z,68.48
2022-09-23T16:21:55.652Z,69.00
2022-09-23T16:27:00.012Z,70.07
2022-09-23T16:32:02.437Z,70.97
2022-09-23T16:37:15.936Z,71.89
2022-09-23T16:42:17.284Z,72.70
2022-09-23T16:47:19.646Z,73.37
2022-09-23T16:52:21.855Z,73.81
2022-09-23T16:57:23.065Z,74.42
2022-09-23T17:02:43.430Z,74.96
2022-09-23T17:07:48.163Z,75.48
2022-09-23T17:12:49.984Z,75.74
2022-09-23T17:17:52.247Z,76.18
2022-09-23T17:22:55.059Z,76.58
2022-09-23T17:28:00.284Z,76.75
2022-09-23T17:33:01.500Z,77.39
2022-09-23T17:38:04.008Z,77.91
2022-09-23T17:43:07.422Z,78.71
2022-09-23T17:48:08.657Z,79.19
2022-09-23T17:53:11.582Z,79.56
2022-09-23T17:58:12.892Z,79.94
2022-09-23T18:03:16.645Z,80.02
2022-09-23T18:08:20.988Z,80.02
2022-09-23T18:13:25.344Z,80.25
2022-09-23T18:18:28.116Z,80.63
2022-09-23T18:23:29.644Z,80.59
2022-09-23T18:28:34.810Z,80.86
2022-09-23T18:33:38.719Z,81.24
2022-09-23T18:38:42.235Z,81.82
2022-09-23T18:43:48.655Z,82.34
2022-09-23T18:49:17.429Z,82.62
2022-09-23T18:54:19.194Z,82.71
2022-09-23T18:59:25.129Z,82.55
2022-09-23T19:04:28.242Z,82.82
2022-09-23T19:09:29.550Z,82.98
2022-09-23T19:14:30.805Z,83.10
2022-09-23T19:19:33.090Z,83.23
2022-09-23T19:24:35.539Z,83.40
2022-09-23T19:29:39.897Z,83.50
2022-09-23T19:34:41.228Z,83.23
2022-09-23T19:39:43.571Z,83.33
2022-09-23T19:44:44.784Z,83.34
2022-09-23T19:49:46.751Z,83.44
2022-09-23T19:54:48.119Z,83.84
2022-09-23T19:59:49.912Z,84.07
2022-09-23T20:04:52.839Z,83.90
2022-09-23T20:09:55.733Z,84.12
2022-09-23T20:14:56.948Z,84.22
2022-09-23T20:19:58.596Z,83.97
2022-09-23T20:25:03.209Z,83.82
2022-09-23T20:30:06.694Z,83.90
2022-09-23T20:35:08.169Z,83.82
2022-09-23T20:40:10.929Z,83.59
2022-09-23T20:45:12.671Z,84.05
2022-09-23T20:50:14.189Z,84.59
2022-09-23T20:55:16.543Z,84.86
2022-09-23T21:00:18.021Z,85.18
2022-09-23T21:05:19.535Z,85.24
2022-09-23T21:10:22.115Z,85.57
2022-09-23T21:15:23.800Z,85.73
2022-09-23T21:20:25.265Z,86.15
2022-09-23T21:25:28.881Z,86.45
2022-09-23T21:30:30.856Z,86.51
2022-09-23T21:35:33.289Z,86.30
2022-09-23T21:40:53.008Z,86.16
2022-09-23T21:46:02.592Z,85.98
2022-09-23T21:51:08.643Z,85.89
2022-09-23T21:56:20.921Z,86.08
2022-09-23T22:01:24.522Z,86.52
2022-09-23T22:06:27.914Z,86.68
2022-09-23T22:11:50.047Z,86.27
2022-09-23T22:16:56.626Z,85.84
2022-09-23T22:21:57.999Z,85.62
2022-09-23T22:26:59.218Z,85.55
2022-09-23T22:32:20.508Z,85.33
2022-09-23T22:37:26.529Z,85.45
2022-09-23T22:42:28.531Z,85.53
2022-09-23T22:47:31.422Z,85.36
2022-09-23T22:52:32.675Z,85.48
2022-09-23T22:57:33.992Z,85.71
2022-09-23T23:02:36.105Z,85.72
2022-09-23T23:07:37.366Z,85.78
2022-09-23T23:12:39.548Z,85.91
2022-09-23T23:17:42.478Z,86.20
2022-09-23T23:22:43.656Z,86.10
2022-09-23T23:27:44.754Z,86.00
2022-09-23T23:32:45.998Z,85.96
2022-09-23T23:37:47.635Z,85.87
2022-09-23T23:42:48.777Z,85.90
2022-09-23T23:47:49.938Z,85.89
2022-09-23T23:52:50.963Z,85.85
2022-09-23T23:57:52.158Z,86.18
